< < Back
Terminal Aerodrome Forecast


Current Version              Previous Versions:   1  2  3  4  5  6  7  8  9  

Terminal Aerodrome Forecast

986
FTUS42 KFFC 301100
TAFCSG
TAF
KCSG 301120Z 3012/3112 35005KT P6SM SKC
     FM301400 02006KT P6SM SKC
     FM301800 34006KT P6SM SKC
     FM310200 35002KT P6SM SKC=

Latest METAR

970
SAUS70 KWBC 301600 RRA
MTRCSG
METAR KCSG 301551Z 03005KT 10SM CLR 18/03 A3008 RMK AO2 SLP181
T01780033


USA.gov is the U.S. government's official web portal to all federal, state and local government web resources and services.